sensor_id;sensor_type;location;lat;lon;timestamp;P1;durP1;ratioP1;P2;durP2;ratioP2
67442;SDS011;54311;51.726;5.154;2022-10-18T00:00:49;34.47;;;11.98;;
67442;SDS011;54311;51.726;5.154;2022-10-18T00:03:14;50.42;;;12.00;;
67442;SDS011;54311;51.726;5.154;2022-10-18T00:05:40;42.55;;;10.57;;
67442;SDS011;54311;51.726;5.154;2022-10-18T00:08:05;79.90;;;11.80;;
67442;SDS011;54311;51.726;5.154;2022-10-18T00:10:30;141.63;;;13.57;;
67442;SDS011;54311;51.726;5.154;2022-10-18T00:12:56;44.97;;;10.30;;
67442;SDS011;54311;51.726;5.154;2022-10-18T00:15:21;15.77;;;9.73;;
67442;SDS011;54311;51.726;5.154;2022-10-18T00:17:47;11.98;;;8.73;;
67442;SDS011;54311;51.726;5.154;2022-10-18T00:20:12;66.78;;;10.02;;
67442;SDS011;54311;51.726;5.154;2022-10-18T00:22:38;10.30;;;9.50;;
67442;SDS011;54311;51.726;5.154;2022-10-18T00:25:05;8.93;;;8.27;;
67442;SDS011;54311;51.726;5.154;2022-10-18T00:27:31;10.45;;;8.88;;
67442;SDS011;54311;51.726;5.154;2022-10-18T00:29:57;10.82;;;9.93;;
67442;SDS011;54311;51.726;5.154;2022-10-18T00:32:22;11.88;;;10.35;;
67442;SDS011;54311;51.726;5.154;2022-10-18T00:34:48;15.00;;;12.07;;
67442;SDS011;54311;51.726;5.154;2022-10-18T00:37:13;13.20;;;12.00;;
67442;SDS011;54311;51.726;5.154;2022-10-18T00:39:39;16.50;;;13.13;;
67442;SDS011;54311;51.726;5.154;2022-10-18T00:42:04;14.57;;;13.07;;
67442;SDS011;54311;51.726;5.154;2022-10-18T00:46:56;14.13;;;12.93;;
67442;SDS011;54311;51.726;5.154;2022-10-18T00:49:27;34.70;;;12.88;;
67442;SDS011;54311;51.726;5.154;2022-10-18T00:52:04;35.58;;;12.73;;
67442;SDS011;54311;51.726;5.154;2022-10-18T00:54:31;15.15;;;12.35;;
67442;SDS011;54311;51.726;5.154;2022-10-18T00:56:58;14.93;;;11.32;;
67442;SDS011;54311;51.726;5.154;2022-10-18T00:59:23;14.63;;;10.70;;
67442;SDS011;54311;51.726;5.154;2022-10-18T01:01:49;15.68;;;11.63;;
67442;SDS011;54311;51.726;5.154;2022-10-18T01:04:15;11.65;;;10.52;;
67442;SDS011;54311;51.726;5.154;2022-10-18T01:06:59;11.27;;;10.48;;
67442;SDS011;54311;51.726;5.154;2022-10-18T01:15:15;40.53;;;11.07;;
67442;SDS011;54311;51.726;5.154;2022-10-18T01:23:18;33.72;;;10.27;;
67442;SDS011;54311;51.726;5.154;2022-10-18T01:25:50;38.97;;;9.60;;
67442;SDS011;54311;51.726;5.154;2022-10-18T01:28:28;31.33;;;11.00;;
67442;SDS011;54311;51.726;5.154;2022-10-18T01:31:00;11.55;;;10.30;;
67442;SDS011;54311;51.726;5.154;2022-10-18T01:36:18;15.82;;;11.90;;
67442;SDS011;54311;51.726;5.154;2022-10-18T01:38:46;55.35;;;12.23;;
67442;SDS011;54311;51.726;5.154;2022-10-18T01:41:14;93.63;;;11.60;;
67442;SDS011;54311;51.726;5.154;2022-10-18T01:43:40;39.70;;;11.80;;
67442;SDS011;54311;51.726;5.154;2022-10-18T01:46:06;17.58;;;11.27;;
67442;SDS011;54311;51.726;5.154;2022-10-18T01:48:33;39.83;;;11.75;;
67442;SDS011;54311;51.726;5.154;2022-10-18T01:51:02;61.00;;;11.40;;
67442;SDS011;54311;51.726;5.154;2022-10-18T01:53:29;53.00;;;12.20;;
67442;SDS011;54311;51.726;5.154;2022-10-18T01:56:17;56.13;;;11.70;;
67442;SDS011;54311;51.726;5.154;2022-10-18T01:58:52;47.22;;;10.25;;
67442;SDS011;54311;51.726;5.154;2022-10-18T02:03:53;26.05;;;10.52;;
67442;SDS011;54311;51.726;5.154;2022-10-18T02:06:22;17.90;;;9.68;;
67442;SDS011;54311;51.726;5.154;2022-10-18T02:08:53;11.00;;;8.20;;
67442;SDS011;54311;51.726;5.154;2022-10-18T02:11:26;11.45;;;8.73;;
67442;SDS011;54311;51.726;5.154;2022-10-18T02:13:54;19.10;;;9.55;;
67442;SDS011;54311;51.726;5.154;2022-10-18T02:16:24;16.13;;;9.50;;
67442;SDS011;54311;51.726;5.154;2022-10-18T02:18:54;16.83;;;9.25;;
67442;SDS011;54311;51.726;5.154;2022-10-18T02:21:37;11.40;;;10.35;;
67442;SDS011;54311;51.726;5.154;2022-10-18T02:24:05;22.02;;;10.15;;
67442;SDS011;54311;51.726;5.154;2022-10-18T02:26:30;105.93;;;9.52;;
67442;SDS011;54311;51.726;5.154;2022-10-18T02:28:56;35.25;;;9.45;;
67442;SDS011;54311;51.726;5.154;2022-10-18T02:31:33;34.88;;;9.20;;
67442;SDS011;54311;51.726;5.154;2022-10-18T02:34:20;18.30;;;8.48;;
67442;SDS011;54311;51.726;5.154;2022-10-18T02:36:51;34.28;;;9.10;;
67442;SDS011;54311;51.726;5.154;2022-10-18T02:39:19;40.40;;;9.48;;
67442;SDS011;54311;51.726;5.154;2022-10-18T02:41:47;91.40;;;9.93;;
67442;SDS011;54311;51.726;5.154;2022-10-18T02:44:12;20.90;;;8.60;;
67442;SDS011;54311;51.726;5.154;2022-10-18T02:46:38;18.23;;;8.38;;
67442;SDS011;54311;51.726;5.154;2022-10-18T02:49:03;16.70;;;8.32;;
67442;SDS011;54311;51.726;5.154;2022-10-18T02:51:29;8.88;;;8.18;;
67442;SDS011;54311;51.726;5.154;2022-10-18T02:53:55;10.90;;;10.18;;
67442;SDS011;54311;51.726;5.154;2022-10-18T02:56:20;29.95;;;10.88;;
67442;SDS011;54311;51.726;5.154;2022-10-18T02:58:46;29.13;;;11.45;;
67442;SDS011;54311;51.726;5.154;2022-10-18T03:01:11;10.90;;;10.07;;
67442;SDS011;54311;51.726;5.154;2022-10-18T03:03:36;12.57;;;11.43;;
67442;SDS011;54311;51.726;5.154;2022-10-18T03:06:02;12.23;;;11.35;;
67442;SDS011;54311;51.726;5.154;2022-10-18T03:08:27;20.00;;;11.63;;
67442;SDS011;54311;51.726;5.154;2022-10-18T03:10:52;13.68;;;12.65;;
67442;SDS011;54311;51.726;5.154;2022-10-18T03:13:18;13.98;;;12.88;;
67442;SDS011;54311;51.726;5.154;2022-10-18T03:15:43;12.93;;;12.02;;
67442;SDS011;54311;51.726;5.154;2022-10-18T03:18:08;13.32;;;12.23;;
67442;SDS011;54311;51.726;5.154;2022-10-18T03:20:34;13.40;;;12.48;;
67442;SDS011;54311;51.726;5.154;2022-10-18T03:22:59;13.70;;;12.70;;
67442;SDS011;54311;51.726;5.154;2022-10-18T03:25:25;14.90;;;13.25;;
67442;SDS011;54311;51.726;5.154;2022-10-18T03:27:50;13.50;;;12.50;;
67442;SDS011;54311;51.726;5.154;2022-10-18T03:30:15;12.35;;;11.55;;
67442;SDS011;54311;51.726;5.154;2022-10-18T03:32:41;13.90;;;12.85;;
67442;SDS011;54311;51.726;5.154;2022-10-18T03:35:06;16.65;;;13.02;;
67442;SDS011;54311;51.726;5.154;2022-10-18T03:37:33;13.85;;;12.75;;
67442;SDS011;54311;51.726;5.154;2022-10-18T03:39:59;13.98;;;12.88;;
67442;SDS011;54311;51.726;5.154;2022-10-18T03:42:24;14.20;;;13.00;;
67442;SDS011;54311;51.726;5.154;2022-10-18T03:44:49;14.77;;;13.48;;
67442;SDS011;54311;51.726;5.154;2022-10-18T03:47:15;14.05;;;12.70;;
67442;SDS011;54311;51.726;5.154;2022-10-18T03:49:40;14.48;;;13.13;;
67442;SDS011;54311;51.726;5.154;2022-10-18T03:52:05;15.45;;;13.85;;
67442;SDS011;54311;51.726;5.154;2022-10-18T03:54:31;15.52;;;14.13;;
67442;SDS011;54311;51.726;5.154;2022-10-18T03:56:56;15.35;;;14.15;;
67442;SDS011;54311;51.726;5.154;2022-10-18T03:59:21;15.25;;;13.88;;
67442;SDS011;54311;51.726;5.154;2022-10-18T04:01:47;14.55;;;13.40;;
67442;SDS011;54311;51.726;5.154;2022-10-18T04:04:12;14.13;;;12.77;;
67442;SDS011;54311;51.726;5.154;2022-10-18T04:06:38;15.18;;;13.77;;
67442;SDS011;54311;51.726;5.154;2022-10-18T04:09:03;15.43;;;14.05;;
67442;SDS011;54311;51.726;5.154;2022-10-18T04:11:28;15.48;;;14.02;;
67442;SDS011;54311;51.726;5.154;2022-10-18T04:13:54;13.38;;;12.27;;
67442;SDS011;54311;51.726;5.154;2022-10-18T04:16:19;24.90;;;14.65;;
67442;SDS011;54311;51.726;5.154;2022-10-18T04:18:44;68.28;;;15.18;;
67442;SDS011;54311;51.726;5.154;2022-10-18T04:21:10;104.32;;;15.38;;
67442;SDS011;54311;51.726;5.154;2022-10-18T04:23:35;37.55;;;13.10;;
67442;SDS011;54311;51.726;5.154;2022-10-18T04:26:00;18.45;;;13.40;;
67442;SDS011;54311;51.726;5.154;2022-10-18T04:28:26;28.98;;;13.70;;
67442;SDS011;54311;51.726;5.154;2022-10-18T04:30:51;210.50;;;16.13;;
67442;SDS011;54311;51.726;5.154;2022-10-18T04:33:18;105.68;;;15.32;;
67442;SDS011;54311;51.726;5.154;2022-10-18T04:35:43;102.47;;;14.75;;
67442;SDS011;54311;51.726;5.154;2022-10-18T04:38:09;16.65;;;14.00;;
67442;SDS011;54311;51.726;5.154;2022-10-18T04:40:35;67.07;;;14.15;;
67442;SDS011;54311;51.726;5.154;2022-10-18T04:43:01;82.85;;;15.63;;
67442;SDS011;54311;51.726;5.154;2022-10-18T04:45:26;54.25;;;13.90;;
67442;SDS011;54311;51.726;5.154;2022-10-18T04:47:51;59.95;;;14.73;;
67442;SDS011;54311;51.726;5.154;2022-10-18T04:50:17;81.35;;;15.43;;
67442;SDS011;54311;51.726;5.154;2022-10-18T04:52:42;77.97;;;15.63;;
67442;SDS011;54311;51.726;5.154;2022-10-18T04:55:08;135.63;;;18.98;;
67442;SDS011;54311;51.726;5.154;2022-10-18T04:57:33;25.23;;;15.30;;
67442;SDS011;54311;51.726;5.154;2022-10-18T04:59:59;76.90;;;14.95;;
67442;SDS011;54311;51.726;5.154;2022-10-18T05:02:24;82.00;;;15.38;;
67442;SDS011;54311;51.726;5.154;2022-10-18T05:04:50;31.15;;;13.23;;
67442;SDS011;54311;51.726;5.154;2022-10-18T05:07:15;46.15;;;13.30;;
67442;SDS011;54311;51.726;5.154;2022-10-18T05:09:41;88.68;;;13.65;;
67442;SDS011;54311;51.726;5.154;2022-10-18T05:12:06;61.92;;;12.70;;
67442;SDS011;54311;51.726;5.154;2022-10-18T05:14:32;35.35;;;13.10;;
67442;SDS011;54311;51.726;5.154;2022-10-18T05:16:57;66.63;;;12.65;;
67442;SDS011;54311;51.726;5.154;2022-10-18T05:19:22;117.07;;;14.57;;
67442;SDS011;54311;51.726;5.154;2022-10-18T05:21:48;41.63;;;13.10;;
67442;SDS011;54311;51.726;5.154;2022-10-18T05:24:13;58.17;;;13.45;;
67442;SDS011;54311;51.726;5.154;2022-10-18T05:26:38;64.82;;;13.70;;
67442;SDS011;54311;51.726;5.154;2022-10-18T05:29:04;15.15;;;12.93;;
67442;SDS011;54311;51.726;5.154;2022-10-18T05:31:29;59.50;;;12.73;;
67442;SDS011;54311;51.726;5.154;2022-10-18T05:33:54;52.45;;;13.18;;
67442;SDS011;54311;51.726;5.154;2022-10-18T05:36:20;31.02;;;12.38;;
67442;SDS011;54311;51.726;5.154;2022-10-18T05:38:45;47.10;;;12.80;;
67442;SDS011;54311;51.726;5.154;2022-10-18T05:41:12;69.25;;;13.45;;
67442;SDS011;54311;51.726;5.154;2022-10-18T05:43:38;47.95;;;11.75;;
67442;SDS011;54311;51.726;5.154;2022-10-18T05:46:06;34.45;;;12.45;;
67442;SDS011;54311;51.726;5.154;2022-10-18T05:48:32;24.42;;;12.18;;
67442;SDS011;54311;51.726;5.154;2022-10-18T05:50:58;15.15;;;12.60;;
67442;SDS011;54311;51.726;5.154;2022-10-18T05:53:24;51.28;;;13.13;;
67442;SDS011;54311;51.726;5.154;2022-10-18T05:55:49;40.75;;;11.52;;
67442;SDS011;54311;51.726;5.154;2022-10-18T05:58:14;25.08;;;12.00;;
67442;SDS011;54311;51.726;5.154;2022-10-18T06:00:40;22.67;;;11.68;;
67442;SDS011;54311;51.726;5.154;2022-10-18T06:03:06;11.95;;;10.35;;
67442;SDS011;54311;51.726;5.154;2022-10-18T06:05:31;26.25;;;11.23;;
67442;SDS011;54311;51.726;5.154;2022-10-18T06:07:56;25.73;;;11.23;;
67442;SDS011;54311;51.726;5.154;2022-10-18T06:10:21;11.75;;;10.68;;
67442;SDS011;54311;51.726;5.154;2022-10-18T06:12:47;15.07;;;10.23;;
67442;SDS011;54311;51.726;5.154;2022-10-18T06:15:12;16.83;;;9.40;;
67442;SDS011;54311;51.726;5.154;2022-10-18T06:17:38;29.23;;;9.32;;
67442;SDS011;54311;51.726;5.154;2022-10-18T06:20:03;15.75;;;8.65;;
67442;SDS011;54311;51.726;5.154;2022-10-18T06:22:29;9.57;;;8.95;;
67442;SDS011;54311;51.726;5.154;2022-10-18T06:24:54;23.73;;;8.60;;
67442;SDS011;54311;51.726;5.154;2022-10-18T06:27:20;30.23;;;9.23;;
67442;SDS011;54311;51.726;5.154;2022-10-18T06:29:45;14.05;;;8.63;;
67442;SDS011;54311;51.726;5.154;2022-10-18T06:32:10;8.90;;;7.95;;
67442;SDS011;54311;51.726;5.154;2022-10-18T06:34:36;9.05;;;7.57;;
67442;SDS011;54311;51.726;5.154;2022-10-18T06:37:01;14.82;;;9.00;;
67442;SDS011;54311;51.726;5.154;2022-10-18T06:39:26;31.55;;;8.60;;
67442;SDS011;54311;51.726;5.154;2022-10-18T06:41:52;40.95;;;8.52;;
67442;SDS011;54311;51.726;5.154;2022-10-18T06:44:17;50.65;;;8.70;;
67442;SDS011;54311;51.726;5.154;2022-10-18T06:46:43;33.42;;;8.43;;
67442;SDS011;54311;51.726;5.154;2022-10-18T06:49:09;81.95;;;9.10;;
67442;SDS011;54311;51.726;5.154;2022-10-18T06:51:36;76.10;;;9.70;;
67442;SDS011;54311;51.726;5.154;2022-10-18T06:54:02;56.55;;;10.15;;
67442;SDS011;54311;51.726;5.154;2022-10-18T06:56:27;31.33;;;9.95;;
67442;SDS011;54311;51.726;5.154;2022-10-18T06:58:53;9.30;;;8.55;;
67442;SDS011;54311;51.726;5.154;2022-10-18T07:01:19;43.50;;;10.02;;
67442;SDS011;54311;51.726;5.154;2022-10-18T07:03:45;19.92;;;9.18;;
67442;SDS011;54311;51.726;5.154;2022-10-18T07:06:11;36.05;;;10.40;;
67442;SDS011;54311;51.726;5.154;2022-10-18T07:08:38;32.70;;;9.80;;
67442;SDS011;54311;51.726;5.154;2022-10-18T07:11:04;12.82;;;9.18;;
67442;SDS011;54311;51.726;5.154;2022-10-18T07:13:31;37.30;;;9.30;;
67442;SDS011;54311;51.726;5.154;2022-10-18T07:18:33;37.78;;;9.07;;
67442;SDS011;54311;51.726;5.154;2022-10-18T07:21:02;64.07;;;9.60;;
67442;SDS011;54311;51.726;5.154;2022-10-18T07:23:31;33.05;;;9.90;;
67442;SDS011;54311;51.726;5.154;2022-10-18T07:25:59;11.77;;;8.90;;
67442;SDS011;54311;51.726;5.154;2022-10-18T07:28:26;26.02;;;9.32;;
67442;SDS011;54311;51.726;5.154;2022-10-18T07:30:52;50.28;;;9.55;;
67442;SDS011;54311;51.726;5.154;2022-10-18T07:33:17;17.85;;;8.52;;
67442;SDS011;54311;51.726;5.154;2022-10-18T07:35:44;10.50;;;8.23;;
67442;SDS011;54311;51.726;5.154;2022-10-18T07:38:09;20.35;;;9.13;;
67442;SDS011;54311;51.726;5.154;2022-10-18T07:40:35;9.95;;;9.05;;
67442;SDS011;54311;51.726;5.154;2022-10-18T07:43:00;24.83;;;9.25;;
67442;SDS011;54311;51.726;5.154;2022-10-18T07:45:25;9.65;;;9.05;;
67442;SDS011;54311;51.726;5.154;2022-10-18T07:47:54;11.35;;;10.65;;
67442;SDS011;54311;51.726;5.154;2022-10-18T07:50:20;15.30;;;10.48;;
67442;SDS011;54311;51.726;5.154;2022-10-18T07:52:45;23.50;;;10.60;;
67442;SDS011;54311;51.726;5.154;2022-10-18T07:55:11;28.63;;;11.00;;
67442;SDS011;54311;51.726;5.154;2022-10-18T07:57:36;21.50;;;12.07;;
67442;SDS011;54311;51.726;5.154;2022-10-18T08:00:01;16.92;;;11.68;;
67442;SDS011;54311;51.726;5.154;2022-10-18T08:02:27;16.23;;;11.65;;
67442;SDS011;54311;51.726;5.154;2022-10-18T08:04:53;23.67;;;13.20;;
67442;SDS011;54311;51.726;5.154;2022-10-18T08:07:18;64.60;;;16.95;;
67442;SDS011;54311;51.726;5.154;2022-10-18T08:09:43;66.88;;;17.92;;
67442;SDS011;54311;51.726;5.154;2022-10-18T08:12:09;54.72;;;20.05;;
67442;SDS011;54311;51.726;5.154;2022-10-18T08:14:34;83.00;;;22.95;;
67442;SDS011;54311;51.726;5.154;2022-10-18T08:17:00;47.65;;;21.83;;
67442;SDS011;54311;51.726;5.154;2022-10-18T08:19:25;50.40;;;24.35;;
67442;SDS011;54311;51.726;5.154;2022-10-18T08:21:50;45.22;;;24.85;;
67442;SDS011;54311;51.726;5.154;2022-10-18T08:24:16;52.83;;;25.92;;
67442;SDS011;54311;51.726;5.154;2022-10-18T08:26:41;41.25;;;25.17;;
67442;SDS011;54311;51.726;5.154;2022-10-18T08:29:06;39.45;;;26.48;;
67442;SDS011;54311;51.726;5.154;2022-10-18T08:31:32;36.28;;;25.13;;
67442;SDS011;54311;51.726;5.154;2022-10-18T08:37:18;48.95;;;24.83;;
67442;SDS011;54311;51.726;5.154;2022-10-18T08:39:44;38.00;;;23.45;;
67442;SDS011;54311;51.726;5.154;2022-10-18T08:42:15;44.08;;;24.08;;
67442;SDS011;54311;51.726;5.154;2022-10-18T08:44:50;42.97;;;23.90;;
67442;SDS011;54311;51.726;5.154;2022-10-18T08:47:16;40.30;;;24.33;;
67442;SDS011;54311;51.726;5.154;2022-10-18T08:52:38;39.53;;;25.25;;
67442;SDS011;54311;51.726;5.154;2022-10-18T08:55:10;37.97;;;24.05;;
67442;SDS011;54311;51.726;5.154;2022-10-18T08:57:49;44.08;;;24.75;;
67442;SDS011;54311;51.726;5.154;2022-10-18T09:00:19;35.70;;;23.73;;
67442;SDS011;54311;51.726;5.154;2022-10-18T09:05:50;32.00;;;21.38;;
67442;SDS011;54311;51.726;5.154;2022-10-18T09:14:19;26.30;;;17.08;;
67442;SDS011;54311;51.726;5.154;2022-10-18T09:22:28;21.27;;;12.63;;
67442;SDS011;54311;51.726;5.154;2022-10-18T09:27:51;24.75;;;13.90;;
67442;SDS011;54311;51.726;5.154;2022-10-18T09:35:43;33.25;;;13.23;;
67442;SDS011;54311;51.726;5.154;2022-10-18T09:40:45;19.95;;;11.68;;
67442;SDS011;54311;51.726;5.154;2022-10-18T09:43:15;19.10;;;14.00;;
67442;SDS011;54311;51.726;5.154;2022-10-18T09:45:44;20.98;;;13.95;;
67442;SDS011;54311;51.726;5.154;2022-10-18T09:50:39;25.88;;;14.80;;
67442;SDS011;54311;51.726;5.154;2022-10-18T09:53:20;26.40;;;14.90;;
67442;SDS011;54311;51.726;5.154;2022-10-18T10:01:10;22.42;;;13.93;;
67442;SDS011;54311;51.726;5.154;2022-10-18T10:03:40;30.20;;;14.65;;
67442;SDS011;54311;51.726;5.154;2022-10-18T10:08:39;21.92;;;14.65;;
67442;SDS011;54311;51.726;5.154;2022-10-18T10:11:24;24.98;;;14.80;;
67442;SDS011;54311;51.726;5.154;2022-10-18T10:13:51;21.50;;;11.15;;
67442;SDS011;54311;51.726;5.154;2022-10-18T10:16:16;21.65;;;11.05;;
67442;SDS011;54311;51.726;5.154;2022-10-18T10:18:42;20.23;;;9.88;;
67442;SDS011;54311;51.726;5.154;2022-10-18T10:21:14;21.27;;;10.20;;
67442;SDS011;54311;51.726;5.154;2022-10-18T10:23:50;23.05;;;7.15;;
67442;SDS011;54311;51.726;5.154;2022-10-18T10:26:24;18.13;;;8.75;;
67442;SDS011;54311;51.726;5.154;2022-10-18T10:28:52;16.13;;;7.43;;
67442;SDS011;54311;51.726;5.154;2022-10-18T10:33:44;19.00;;;8.00;;
67442;SDS011;54311;51.726;5.154;2022-10-18T10:36:16;21.92;;;8.48;;
67442;SDS011;54311;51.726;5.154;2022-10-18T10:38:42;14.93;;;7.65;;
67442;SDS011;54311;51.726;5.154;2022-10-18T10:41:28;13.70;;;5.63;;
67442;SDS011;54311;51.726;5.154;2022-10-18T10:43:53;11.85;;;5.18;;
67442;SDS011;54311;51.726;5.154;2022-10-18T10:46:18;11.43;;;4.32;;
67442;SDS011;54311;51.726;5.154;2022-10-18T10:48:51;12.93;;;5.70;;
67442;SDS011;54311;51.726;5.154;2022-10-18T10:53:58;12.98;;;5.57;;
67442;SDS011;54311;51.726;5.154;2022-10-18T10:56:31;12.73;;;6.22;;
67442;SDS011;54311;51.726;5.154;2022-10-18T10:59:06;12.82;;;5.40;;
67442;SDS011;54311;51.726;5.154;2022-10-18T11:01:32;17.63;;;5.00;;
67442;SDS011;54311;51.726;5.154;2022-10-18T11:04:02;18.85;;;5.05;;
67442;SDS011;54311;51.726;5.154;2022-10-18T11:06:52;13.27;;;4.53;;
67442;SDS011;54311;51.726;5.154;2022-10-18T11:09:23;15.80;;;5.00;;
67442;SDS011;54311;51.726;5.154;2022-10-18T11:11:55;10.13;;;3.97;;
67442;SDS011;54311;51.726;5.154;2022-10-18T11:14:26;12.82;;;4.53;;
67442;SDS011;54311;51.726;5.154;2022-10-18T11:17:02;8.90;;;3.95;;
67442;SDS011;54311;51.726;5.154;2022-10-18T11:22:22;13.43;;;3.95;;
67442;SDS011;54311;51.726;5.154;2022-10-18T11:24:49;9.98;;;2.90;;
67442;SDS011;54311;51.726;5.154;2022-10-18T11:32:43;10.75;;;4.03;;
67442;SDS011;54311;51.726;5.154;2022-10-18T11:43:57;19.42;;;4.85;;
67442;SDS011;54311;51.726;5.154;2022-10-18T11:46:32;19.25;;;4.05;;
67442;SDS011;54311;51.726;5.154;2022-10-18T11:49:30;11.75;;;4.85;;
67442;SDS011;54311;51.726;5.154;2022-10-18T11:52:15;16.30;;;4.97;;
67442;SDS011;54311;51.726;5.154;2022-10-18T11:54:51;15.50;;;4.10;;
67442;SDS011;54311;51.726;5.154;2022-10-18T11:57:31;15.70;;;4.30;;
67442;SDS011;54311;51.726;5.154;2022-10-18T12:03:21;9.68;;;3.83;;
67442;SDS011;54311;51.726;5.154;2022-10-18T12:05:51;14.80;;;3.25;;
67442;SDS011;54311;51.726;5.154;2022-10-18T12:11:06;7.05;;;2.90;;
67442;SDS011;54311;51.726;5.154;2022-10-18T12:16:34;9.25;;;3.22;;
67442;SDS011;54311;51.726;5.154;2022-10-18T12:19:03;12.65;;;3.35;;
67442;SDS011;54311;51.726;5.154;2022-10-18T12:21:30;10.80;;;3.08;;
67442;SDS011;54311;51.726;5.154;2022-10-18T12:24:15;11.98;;;3.03;;
67442;SDS011;54311;51.726;5.154;2022-10-18T12:26:43;10.80;;;3.28;;
67442;SDS011;54311;51.726;5.154;2022-10-18T12:32:05;12.02;;;3.17;;
67442;SDS011;54311;51.726;5.154;2022-10-18T12:42:13;6.70;;;3.05;;
67442;SDS011;54311;51.726;5.154;2022-10-18T12:44:42;9.88;;;2.70;;
67442;SDS011;54311;51.726;5.154;2022-10-18T12:47:17;11.88;;;3.00;;
67442;SDS011;54311;51.726;5.154;2022-10-18T12:49:46;10.10;;;2.60;;
67442;SDS011;54311;51.726;5.154;2022-10-18T12:55:00;6.53;;;2.53;;
67442;SDS011;54311;51.726;5.154;2022-10-18T12:57:59;11.88;;;3.60;;
67442;SDS011;54311;51.726;5.154;2022-10-18T13:00:58;12.13;;;2.75;;
67442;SDS011;54311;51.726;5.154;2022-10-18T13:11:12;8.07;;;2.75;;
67442;SDS011;54311;51.726;5.154;2022-10-18T13:16:50;8.32;;;2.85;;
67442;SDS011;54311;51.726;5.154;2022-10-18T13:19:46;8.13;;;2.50;;
67442;SDS011;54311;51.726;5.154;2022-10-18T13:27:46;9.25;;;2.55;;
67442;SDS011;54311;51.726;5.154;2022-10-18T13:36:00;7.57;;;3.05;;
67442;SDS011;54311;51.726;5.154;2022-10-18T13:38:38;12.70;;;2.55;;
67442;SDS011;54311;51.726;5.154;2022-10-18T13:41:10;9.63;;;3.33;;
67442;SDS011;54311;51.726;5.154;2022-10-18T13:46:17;7.95;;;2.83;;
67442;SDS011;54311;51.726;5.154;2022-10-18T13:49:25;9.55;;;3.03;;
67442;SDS011;54311;51.726;5.154;2022-10-18T14:08:15;14.68;;;2.90;;
67442;SDS011;54311;51.726;5.154;2022-10-18T14:13:38;15.38;;;3.03;;
67442;SDS011;54311;51.726;5.154;2022-10-18T14:16:53;8.82;;;2.97;;
67442;SDS011;54311;51.726;5.154;2022-10-18T14:19:10;11.93;;;2.67;;
67442;SDS011;54311;51.726;5.154;2022-10-18T14:21:40;8.02;;;2.53;;
67442;SDS011;54311;51.726;5.154;2022-10-18T14:24:18;9.75;;;2.92;;
67442;SDS011;54311;51.726;5.154;2022-10-18T14:26:45;6.20;;;3.10;;
67442;SDS011;54311;51.726;5.154;2022-10-18T14:29:17;13.88;;;2.67;;
67442;SDS011;54311;51.726;5.154;2022-10-18T14:31:52;8.15;;;2.95;;
67442;SDS011;54311;51.726;5.154;2022-10-18T14:34:18;8.90;;;3.10;;
67442;SDS011;54311;51.726;5.154;2022-10-18T14:36:45;7.40;;;2.30;;
67442;SDS011;54311;51.726;5.154;2022-10-18T14:39:23;8.93;;;2.70;;
67442;SDS011;54311;51.726;5.154;2022-10-18T14:41:52;6.72;;;3.05;;
67442;SDS011;54311;51.726;5.154;2022-10-18T14:44:26;7.32;;;2.90;;
67442;SDS011;54311;51.726;5.154;2022-10-18T14:47:03;7.10;;;2.90;;
67442;SDS011;54311;51.726;5.154;2022-10-18T14:49:42;13.20;;;2.75;;
67442;SDS011;54311;51.726;5.154;2022-10-18T14:52:09;8.13;;;3.00;;
67442;SDS011;54311;51.726;5.154;2022-10-18T14:54:43;7.78;;;2.55;;
67442;SDS011;54311;51.726;5.154;2022-10-18T14:57:14;7.00;;;2.42;;
67442;SDS011;54311;51.726;5.154;2022-10-18T14:59:43;10.15;;;2.95;;
67442;SDS011;54311;51.726;5.154;2022-10-18T15:02:21;5.03;;;2.40;;
67442;SDS011;54311;51.726;5.154;2022-10-18T15:04:53;7.13;;;2.60;;
67442;SDS011;54311;51.726;5.154;2022-10-18T15:07:41;4.72;;;2.13;;
67442;SDS011;54311;51.726;5.154;2022-10-18T15:10:09;8.45;;;2.60;;
67442;SDS011;54311;51.726;5.154;2022-10-18T15:12:39;8.20;;;3.33;;
67442;SDS011;54311;51.726;5.154;2022-10-18T15:15:06;5.55;;;2.53;;
67442;SDS011;54311;51.726;5.154;2022-10-18T15:17:42;6.80;;;2.60;;
67442;SDS011;54311;51.726;5.154;2022-10-18T15:23:17;7.72;;;2.15;;
67442;SDS011;54311;51.726;5.154;2022-10-18T15:25:48;6.50;;;2.78;;
67442;SDS011;54311;51.726;5.154;2022-10-18T15:28:26;7.15;;;2.65;;
67442;SDS011;54311;51.726;5.154;2022-10-18T15:30:56;3.67;;;1.90;;
67442;SDS011;54311;51.726;5.154;2022-10-18T15:33:23;4.07;;;2.00;;
67442;SDS011;54311;51.726;5.154;2022-10-18T15:35:49;5.78;;;2.25;;
67442;SDS011;54311;51.726;5.154;2022-10-18T15:38:25;6.28;;;2.20;;
67442;SDS011;54311;51.726;5.154;2022-10-18T15:40:52;6.35;;;1.98;;
67442;SDS011;54311;51.726;5.154;2022-10-18T15:45:56;6.85;;;2.10;;
67442;SDS011;54311;51.726;5.154;2022-10-18T15:48:30;4.20;;;2.50;;
67442;SDS011;54311;51.726;5.154;2022-10-18T15:51:01;7.65;;;2.70;;
67442;SDS011;54311;51.726;5.154;2022-10-18T15:53:51;14.85;;;2.30;;
67442;SDS011;54311;51.726;5.154;2022-10-18T15:59:21;5.65;;;2.25;;
67442;SDS011;54311;51.726;5.154;2022-10-18T16:01:50;8.43;;;2.30;;
67442;SDS011;54311;51.726;5.154;2022-10-18T16:04:17;4.60;;;2.03;;
67442;SDS011;54311;51.726;5.154;2022-10-18T16:06:45;4.28;;;1.70;;
67442;SDS011;54311;51.726;5.154;2022-10-18T16:09:11;15.23;;;2.70;;
67442;SDS011;54311;51.726;5.154;2022-10-18T16:11:40;4.22;;;2.25;;
67442;SDS011;54311;51.726;5.154;2022-10-18T16:14:05;3.47;;;2.03;;
67442;SDS011;54311;51.726;5.154;2022-10-18T16:16:31;7.22;;;2.42;;
67442;SDS011;54311;51.726;5.154;2022-10-18T16:18:57;3.80;;;2.15;;
67442;SDS011;54311;51.726;5.154;2022-10-18T16:21:29;5.80;;;2.60;;
67442;SDS011;54311;51.726;5.154;2022-10-18T16:23:56;7.57;;;3.35;;
67442;SDS011;54311;51.726;5.154;2022-10-18T16:26:22;9.00;;;3.22;;
67442;SDS011;54311;51.726;5.154;2022-10-18T16:28:48;6.93;;;2.45;;
67442;SDS011;54311;51.726;5.154;2022-10-18T16:31:19;7.00;;;3.38;;
67442;SDS011;54311;51.726;5.154;2022-10-18T16:33:46;8.05;;;3.13;;
67442;SDS011;54311;51.726;5.154;2022-10-18T16:36:13;8.43;;;2.40;;
67442;SDS011;54311;51.726;5.154;2022-10-18T16:38:41;6.90;;;2.40;;
67442;SDS011;54311;51.726;5.154;2022-10-18T16:41:07;14.70;;;3.17;;
67442;SDS011;54311;51.726;5.154;2022-10-18T16:43:33;5.07;;;2.20;;
67442;SDS011;54311;51.726;5.154;2022-10-18T16:45:59;7.53;;;2.53;;
67442;SDS011;54311;51.726;5.154;2022-10-18T16:48:24;23.02;;;16.73;;
67442;SDS011;54311;51.726;5.154;2022-10-18T16:50:52;9.07;;;6.80;;
67442;SDS011;54311;51.726;5.154;2022-10-18T16:53:18;14.43;;;8.82;;
67442;SDS011;54311;51.726;5.154;2022-10-18T16:55:48;11.55;;;9.60;;
67442;SDS011;54311;51.726;5.154;2022-10-18T16:58:16;22.58;;;19.20;;
67442;SDS011;54311;51.726;5.154;2022-10-18T17:00:41;14.15;;;9.27;;
67442;SDS011;54311;51.726;5.154;2022-10-18T17:03:07;7.47;;;5.60;;
67442;SDS011;54311;51.726;5.154;2022-10-18T17:05:33;9.05;;;7.88;;
67442;SDS011;54311;51.726;5.154;2022-10-18T17:07:58;11.48;;;7.97;;
67442;SDS011;54311;51.726;5.154;2022-10-18T17:10:24;9.55;;;6.22;;
67442;SDS011;54311;51.726;5.154;2022-10-18T17:12:50;8.77;;;4.68;;
67442;SDS011;54311;51.726;5.154;2022-10-18T17:15:15;7.65;;;4.15;;
67442;SDS011;54311;51.726;5.154;2022-10-18T17:17:41;5.78;;;4.22;;
67442;SDS011;54311;51.726;5.154;2022-10-18T17:20:07;4.65;;;3.30;;